Time,TemperatureF,DewpointF,PressureIn,WindDirection,WindDirectionDegrees,WindSpeedMPH,WindSpeedGustMPH,Humidity,HourlyPrecipIn,Conditions,Clouds,dailyrainin,SoftwareType,DateUTC
2013-09-28 00:03:00,58.5,44.6,-100.00,North,-999,0.0,0.0,60,0.00,,,-99.99,FreeWX-Wi 1.02,2013-09-28 04:03:00,
2013-09-28 00:13:00,58.3,44.4,-100.00,North,-999,0.0,0.0,60,0.00,,,-99.99,FreeWX-Wi 1.02,2013-09-28 04:13:00,
2013-09-28 00:23:00,58.3,45.0,-100.00,North,-999,0.0,0.0,61,0.00,,,-99.99,FreeWX-Wi 1.02,2013-09-28 04:23:00,
2013-09-28 00:33:00,58.1,44.8,-100.00,North,-999,0.0,0.0,61,0.00,,,-99.99,FreeWX-Wi 1.02,2013-09-28 04:33:00,
2013-09-28 00:43:00,57.9,44.6,-100.00,North,-999,0.0,0.0,61,0.00,,,-99.99,FreeWX-Wi 1.02,2013-09-28 04:43:00,
2013-09-28 00:53:00,57.7,44.4,-100.00,North,-999,0.0,0.0,61,0.00,,,-99.99,FreeWX-Wi 1.02,2013-09-28 04:53:00,
2013-09-28 01:03:00,57.6,44.2,-100.00,North,-999,0.0,0.0,61,0.00,,,-99.99,FreeWX-Wi 1.02,2013-09-28 05:03:00,
2013-09-28 01:13:00,57.6,44.6,-100.00,North,-999,0.0,0.0,62,0.00,,,-99.99,FreeWX-Wi 1.02,2013-09-28 05:13:00,
2013-09-28 01:23:00,57.4,44.4,-100.00,North,-999,0.0,0.0,62,0.00,,,-99.99,FreeWX-Wi 1.02,2013-09-28 05:23:00,
2013-09-28 01:33:00,57.2,44.2,-100.00,North,-999,0.0,0.0,62,0.00,,,-99.99,FreeWX-Wi 1.02,2013-09-28 05:33:00,
2013-09-28 01:43:00,57.0,44.6,-100.00,North,-999,0.0,0.0,63,0.00,,,-99.99,FreeWX-Wi 1.02,2013-09-28 05:43:00,
2013-09-28 01:53:00,57.0,44.6,-100.00,North,-999,0.0,0.0,63,0.00,,,-99.99,FreeWX-Wi 1.02,2013-09-28 05:53:00,
2013-09-28 02:03:00,56.8,44.4,-100.00,North,-999,0.0,0.0,63,0.00,,,-99.99,FreeWX-Wi 1.02,2013-09-28 06:03:00,
2013-09-28 02:13:00,56.8,44.8,-100.00,North,-999,0.0,0.0,64,0.00,,,-99.99,FreeWX-Wi 1.02,2013-09-28 06:13:00,
2013-09-28 02:23:00,56.7,44.6,-100.00,North,-999,0.0,0.0,64,0.00,,,-99.99,FreeWX-Wi 1.02,2013-09-28 06:23:00,
2013-09-28 02:33:00,56.7,44.6,-100.00,North,-999,0.0,0.0,64,0.00,,,-99.99,FreeWX-Wi 1.02,2013-09-28 06:33:00,
2013-09-28 02:43:00,56.5,44.4,-100.00,North,-999,0.0,0.0,64,0.00,,,-99.99,FreeWX-Wi 1.02,2013-09-28 06:43:00,
2013-09-28 02:53:00,56.5,44.8,-100.00,North,-999,0.0,0.0,65,0.00,,,-99.99,FreeWX-Wi 1.02,2013-09-28 06:53:00,
2013-09-28 03:03:00,56.3,44.6,-100.00,North,-999,0.0,0.0,65,0.00,,,-99.99,FreeWX-Wi 1.02,2013-09-28 07:03:00,
2013-09-28 03:13:00,56.3,44.6,-100.00,North,-999,0.0,0.0,65,0.00,,,-99.99,FreeWX-Wi 1.02,2013-09-28 07:13:00,
2013-09-28 03:23:00,56.1,44.6,-100.00,North,-999,0.0,0.0,65,0.00,,,-99.99,FreeWX-Wi 1.02,2013-09-28 07:23:00,
2013-09-28 03:33:00,56.1,44.6,-100.00,North,-999,0.0,0.0,65,0.00,,,-99.99,FreeWX-Wi 1.02,2013-09-28 07:33:00,
2013-09-28 03:43:00,55.9,44.4,-100.00,North,-999,0.0,0.0,65,0.00,,,-99.99,FreeWX-Wi 1.02,2013-09-28 07:43:00,
2013-09-28 03:53:00,55.9,44.8,-100.00,North,-999,0.0,0.0,66,0.00,,,-99.99,FreeWX-Wi 1.02,2013-09-28 07:53:00,
2013-09-28 04:03:00,55.9,44.8,-100.00,North,-999,0.0,0.0,66,0.00,,,-99.99,FreeWX-Wi 1.02,2013-09-28 08:03:00,
2013-09-28 04:13:00,55.8,44.6,-100.00,North,-999,0.0,0.0,66,0.00,,,-99.99,FreeWX-Wi 1.02,2013-09-28 08:13:00,
2013-09-28 04:23:00,55.8,44.6,-100.00,North,-999,0.0,0.0,66,0.00,,,-99.99,FreeWX-Wi 1.02,2013-09-28 08:23:00,
2013-09-28 04:33:00,55.8,44.6,-100.00,North,-999,0.0,0.0,66,0.00,,,-99.99,FreeWX-Wi 1.02,2013-09-28 08:33:00,
2013-09-28 04:43:00,55.6,44.8,-100.00,North,-999,0.0,0.0,67,0.00,,,-99.99,FreeWX-Wi 1.02,2013-09-28 08:43:00,
2013-09-28 04:53:00,55.6,44.8,-100.00,North,-999,0.0,0.0,67,0.00,,,-99.99,FreeWX-Wi 1.02,2013-09-28 08:53:00,
2013-09-28 05:03:00,55.6,44.8,-100.00,North,-999,0.0,0.0,67,0.00,,,-99.99,FreeWX-Wi 1.02,2013-09-28 09:03:00,
2013-09-28 05:13:00,55.6,44.8,-100.00,North,-999,0.0,0.0,67,0.00,,,-99.99,FreeWX-Wi 1.02,2013-09-28 09:13:00,
2013-09-28 05:23:00,55.4,44.6,-100.00,North,-999,0.0,0.0,67,0.00,,,-99.99,FreeWX-Wi 1.02,2013-09-28 09:23:00,
2013-09-28 05:33:00,55.4,45.0,-100.00,North,-999,0.0,0.0,68,0.00,,,-99.99,FreeWX-Wi 1.02,2013-09-28 09:33:00,
2013-09-28 05:43:00,55.4,45.0,-100.00,North,-999,0.0,0.0,68,0.00,,,-99.99,FreeWX-Wi 1.02,2013-09-28 09:43:00,
2013-09-28 05:53:00,55.4,45.0,-100.00,North,-999,0.0,0.0,68,0.00,,,-99.99,FreeWX-Wi 1.02,2013-09-28 09:53:00,
2013-09-28 06:03:00,55.4,45.0,-100.00,North,-999,0.0,0.0,68,0.00,,,-99.99,FreeWX-Wi 1.02,2013-09-28 10:03:00,
2013-09-28 06:13:00,55.2,45.1,-100.00,North,-999,0.0,0.0,69,0.00,,,-99.99,FreeWX-Wi 1.02,2013-09-28 10:13:00,
2013-09-28 06:23:00,55.2,45.1,-100.00,North,-999,0.0,0.0,69,0.00,,,-99.99,FreeWX-Wi 1.02,2013-09-28 10:23:00,
2013-09-28 06:33:00,55.2,45.1,-100.00,North,-999,0.0,0.0,69,0.00,,,-99.99,FreeWX-Wi 1.02,2013-09-28 10:33:00,
2013-09-28 06:43:00,55.0,45.1,-100.00,North,-999,0.0,0.0,69,0.00,,,-99.99,FreeWX-Wi 1.02,2013-09-28 10:43:00,
2013-09-28 06:53:00,55.0,45.1,-100.00,North,-999,0.0,0.0,69,0.00,,,-99.99,FreeWX-Wi 1.02,2013-09-28 10:53:00,
2013-09-28 07:03:00,55.0,45.1,-100.00,North,-999,0.0,0.0,69,0.00,,,-99.99,FreeWX-Wi 1.02,2013-09-28 11:03:00,
2013-09-28 07:13:00,54.9,45.0,-100.00,North,-999,0.0,0.0,69,0.00,,,-99.99,FreeWX-Wi 1.02,2013-09-28 11:13:00,
2013-09-28 07:23:00,54.9,45.0,-100.00,North,-999,0.0,0.0,69,0.00,,,-99.99,FreeWX-Wi 1.02,2013-09-28 11:23:00,
2013-09-28 07:33:00,54.9,45.0,-100.00,North,-999,0.0,0.0,69,0.00,,,-99.99,FreeWX-Wi 1.02,2013-09-28 11:33:00,
2013-09-28 07:43:00,54.9,45.3,-100.00,North,-999,0.0,0.0,70,0.00,,,-99.99,FreeWX-Wi 1.02,2013-09-28 11:43:00,
2013-09-28 07:53:00,54.9,45.3,-100.00,North,-999,0.0,0.0,70,0.00,,,-99.99,FreeWX-Wi 1.02,2013-09-28 11:53:00,
2013-09-28 08:03:00,54.9,45.3,-100.00,North,-999,0.0,0.0,70,0.00,,,-99.99,FreeWX-Wi 1.02,2013-09-28 12:03:00,
2013-09-28 08:13:00,54.9,45.3,-100.00,North,-999,0.0,0.0,70,0.00,,,-99.99,FreeWX-Wi 1.02,2013-09-28 12:13:00,
2013-09-28 08:23:00,55.0,45.5,-100.00,North,-999,0.0,0.0,70,0.00,,,-99.99,FreeWX-Wi 1.02,2013-09-28 12:23:00,
2013-09-28 08:33:00,55.2,46.0,-100.00,North,-999,0.0,0.0,71,0.00,,,-99.99,FreeWX-Wi 1.02,2013-09-28 12:33:00,
2013-09-28 08:43:00,55.6,46.4,-100.00,North,-999,0.0,0.0,71,0.00,,,-99.99,FreeWX-Wi 1.02,2013-09-28 12:43:00,
2013-09-28 08:53:00,56.1,46.8,-100.00,North,-999,0.0,0.0,71,0.00,,,-99.99,FreeWX-Wi 1.02,2013-09-28 12:53:00,
2013-09-28 09:03:00,56.7,47.7,-100.00,North,-999,0.0,3.1,72,0.00,,,-99.99,FreeWX-Wi 1.02,2013-09-28 13:03:00,
2013-09-28 09:13:00,57.2,48.2,-100.00,North,-999,0.0,0.0,72,0.00,,,-99.99,FreeWX-Wi 1.02,2013-09-28 13:13:00,
2013-09-28 09:23:00,57.6,48.6,-100.00,North,-999,0.0,0.0,72,0.00,,,-99.99,FreeWX-Wi 1.02,2013-09-28 13:23:00,
2013-09-28 09:33:00,58.1,49.1,-100.00,North,-999,0.0,0.0,72,0.00,,,-99.99,FreeWX-Wi 1.02,2013-09-28 13:33:00,
2013-09-28 09:43:00,58.8,49.8,-100.00,North,-999,0.0,0.0,72,0.00,,,-99.99,FreeWX-Wi 1.02,2013-09-28 13:43:00,
2013-09-28 09:53:00,59.4,50.4,-100.00,North,-999,0.0,3.1,72,0.00,,,-99.99,FreeWX-Wi 1.02,2013-09-28 13:53:00,
2013-09-28 10:03:00,59.9,50.9,-100.00,North,-999,0.0,3.6,72,0.00,,,-99.99,FreeWX-Wi 1.02,2013-09-28 14:03:00,
2013-09-28 10:13:00,60.4,50.9,-100.00,North,-999,0.0,2.7,71,0.00,,,-99.99,FreeWX-Wi 1.02,2013-09-28 14:13:00,
2013-09-28 10:23:00,61.2,50.9,-100.00,North,-999,0.0,2.7,69,0.00,,,-99.99,FreeWX-Wi 1.02,2013-09-28 14:23:00,
2013-09-28 10:33:00,61.9,50.4,-100.00,North,-999,0.0,4.9,66,0.00,,,-99.99,FreeWX-Wi 1.02,2013-09-28 14:33:00,
2013-09-28 10:43:00,62.6,48.9,-100.00,North,-999,0.0,4.0,61,0.00,,,-99.99,FreeWX-Wi 1.02,2013-09-28 14:43:00,
2013-09-28 10:53:00,63.1,47.7,-100.00,North,-999,0.0,4.0,57,0.00,,,-99.99,FreeWX-Wi 1.02,2013-09-28 14:53:00,
2013-09-28 11:03:00,63.5,46.0,-100.00,North,-999,0.0,5.4,53,0.00,,,-99.99,FreeWX-Wi 1.02,2013-09-28 15:03:00,
2013-09-28 11:13:00,64.0,45.0,-100.00,North,-999,0.0,4.0,50,0.00,,,-99.99,FreeWX-Wi 1.02,2013-09-28 15:13:00,
2013-09-28 11:23:00,64.4,44.8,-100.00,North,-999,0.0,4.9,49,0.00,,,-99.99,FreeWX-Wi 1.02,2013-09-28 15:23:00,
2013-09-28 11:33:00,65.1,45.0,-100.00,North,-999,0.0,3.6,48,0.00,,,-99.99,FreeWX-Wi 1.02,2013-09-28 15:33:00,
2013-09-28 11:43:00,65.8,45.0,-100.00,North,-999,0.0,3.6,47,0.00,,,-99.99,FreeWX-Wi 1.02,2013-09-28 15:43:00,
2013-09-28 11:53:00,66.7,44.8,-100.00,North,-999,0.0,0.0,45,0.00,,,-99.99,FreeWX-Wi 1.02,2013-09-28 15:53:00,
2013-09-28 12:03:00,67.5,44.8,-100.00,North,-999,0.0,0.0,44,0.00,,,-99.99,FreeWX-Wi 1.02,2013-09-28 16:03:00,
2013-09-28 12:13:00,68.2,44.8,-100.00,North,-999,0.0,4.0,43,0.00,,,-99.99,FreeWX-Wi 1.02,2013-09-28 16:13:00,
2013-09-28 12:23:00,68.5,44.6,-100.00,North,-999,0.0,2.7,42,0.00,,,-99.99,FreeWX-Wi 1.02,2013-09-28 16:23:00,
2013-09-28 12:33:00,69.4,45.3,-100.00,North,-999,0.0,0.0,42,0.00,,,-99.99,FreeWX-Wi 1.02,2013-09-28 16:33:00,
2013-09-28 12:43:00,69.3,44.6,-100.00,North,-999,0.0,4.0,41,0.00,,,-99.99,FreeWX-Wi 1.02,2013-09-28 16:43:00,
2013-09-28 12:53:00,69.3,44.6,-100.00,North,-999,0.0,4.0,41,0.00,,,-99.99,FreeWX-Wi 1.02,2013-09-28 16:53:00,
2013-09-28 13:03:00,68.9,44.2,-100.00,North,-999,0.0,0.0,41,0.00,,,-99.99,FreeWX-Wi 1.02,2013-09-28 17:03:00,
2013-09-28 13:13:00,68.5,44.6,-100.00,North,-999,0.0,0.0,42,0.00,,,-99.99,FreeWX-Wi 1.02,2013-09-28 17:13:00,
2013-09-28 13:23:00,68.4,44.4,-100.00,North,-999,0.0,0.0,42,0.00,,,-99.99,FreeWX-Wi 1.02,2013-09-28 17:23:00,
2013-09-28 13:33:00,68.4,44.4,-100.00,North,-999,0.0,4.0,42,0.00,,,-99.99,FreeWX-Wi 1.02,2013-09-28 17:33:00,
2013-09-28 13:43:00,68.0,44.6,-100.00,North,-999,0.0,0.0,43,0.00,,,-99.99,FreeWX-Wi 1.02,2013-09-28 17:43:00,
2013-09-28 13:53:00,68.2,43.5,-100.00,North,-999,0.0,0.0,41,0.00,,,-99.99,FreeWX-Wi 1.02,2013-09-28 17:53:00,
2013-09-28 14:03:00,68.2,44.2,-100.00,North,-999,0.0,3.1,42,0.00,,,-99.99,FreeWX-Wi 1.02,2013-09-28 18:03:00,
2013-09-28 14:13:00,68.0,44.1,-100.00,North,-999,0.0,0.0,42,0.00,,,-99.99,FreeWX-Wi 1.02,2013-09-28 18:13:00,
2013-09-28 14:23:00,68.0,44.1,-100.00,North,-999,0.0,0.0,42,0.00,,,-99.99,FreeWX-Wi 1.02,2013-09-28 18:23:00,
2013-09-28 14:33:00,68.0,44.1,-100.00,North,-999,0.0,4.9,42,0.00,,,-99.99,FreeWX-Wi 1.02,2013-09-28 18:33:00,
2013-09-28 14:43:00,67.8,44.4,-100.00,North,-999,0.0,0.0,43,0.00,,,-99.99,FreeWX-Wi 1.02,2013-09-28 18:43:00,
2013-09-28 14:53:00,67.8,44.4,-100.00,North,-999,0.0,4.0,43,0.00,,,-99.99,FreeWX-Wi 1.02,2013-09-28 18:53:00,
2013-09-28 15:03:00,68.0,44.1,-100.00,North,-999,0.0,3.1,42,0.00,,,-99.99,FreeWX-Wi 1.02,2013-09-28 19:03:00,
2013-09-28 15:13:00,68.0,44.6,-100.00,North,-999,0.0,4.0,43,0.00,,,-99.99,FreeWX-Wi 1.02,2013-09-28 19:13:00,
2013-09-28 15:23:00,67.8,43.9,-100.00,North,-999,0.0,0.0,42,0.00,,,-99.99,FreeWX-Wi 1.02,2013-09-28 19:23:00,
2013-09-28 15:33:00,67.8,44.4,-100.00,North,-999,0.0,3.1,43,0.00,,,-99.99,FreeWX-Wi 1.02,2013-09-28 19:33:00,
2013-09-28 15:43:00,67.8,44.4,-100.00,North,-999,0.0,0.0,43,0.00,,,-99.99,FreeWX-Wi 1.02,2013-09-28 19:43:00,
2013-09-28 15:53:00,67.8,45.1,-100.00,North,-999,0.0,0.0,44,0.00,,,-99.99,FreeWX-Wi 1.02,2013-09-28 19:53:00,
2013-09-28 16:03:00,67.6,45.0,-100.00,North,-999,0.0,0.0,44,0.00,,,-99.99,FreeWX-Wi 1.02,2013-09-28 20:03:00,
2013-09-28 16:13:00,67.8,45.1,-100.00,North,-999,0.0,0.0,44,0.00,,,-99.99,FreeWX-Wi 1.02,2013-09-28 20:13:00,
2013-09-28 16:23:00,67.8,44.4,-100.00,North,-999,0.0,3.6,43,0.00,,,-99.99,FreeWX-Wi 1.02,2013-09-28 20:23:00,
2013-09-28 16:33:00,67.5,44.2,-100.00,North,-999,0.0,2.7,43,0.00,,,-99.99,FreeWX-Wi 1.02,2013-09-28 20:33:00,
2013-09-28 16:43:00,67.3,44.6,-100.00,North,-999,0.0,0.0,44,0.00,,,-99.99,FreeWX-Wi 1.02,2013-09-28 20:43:00,
2013-09-28 16:53:00,67.1,45.0,-100.00,North,-999,0.0,0.0,45,0.00,,,-99.99,FreeWX-Wi 1.02,2013-09-28 20:53:00,
2013-09-28 17:03:00,67.1,45.0,-100.00,North,-999,0.0,2.2,45,0.00,,,-99.99,FreeWX-Wi 1.02,2013-09-28 21:03:00,
2013-09-28 17:13:00,67.1,45.0,-100.00,North,-999,0.0,3.1,45,0.00,,,-99.99,FreeWX-Wi 1.02,2013-09-28 21:13:00,
2013-09-28 17:23:00,66.9,45.0,-100.00,North,-999,0.0,6.3,45,0.00,,,-99.99,FreeWX-Wi 1.02,2013-09-28 21:23:00,
2013-09-28 17:33:00,66.7,44.8,-100.00,North,-999,0.0,0.0,45,0.00,,,-99.99,FreeWX-Wi 1.02,2013-09-28 21:33:00,
2013-09-28 17:43:00,66.4,44.4,-100.00,North,-999,0.0,0.0,45,0.00,,,-99.99,FreeWX-Wi 1.02,2013-09-28 21:43:00,
2013-09-28 17:53:00,66.2,44.2,-100.00,North,-999,0.0,0.0,45,0.00,,,-99.99,FreeWX-Wi 1.02,2013-09-28 21:53:00,
2013-09-28 18:03:00,66.0,44.6,-100.00,North,-999,0.0,0.0,46,0.00,,,-99.99,FreeWX-Wi 1.02,2013-09-28 22:03:00,
2013-09-28 18:13:00,66.0,45.7,-100.00,North,-999,0.0,0.0,48,0.00,,,-99.99,FreeWX-Wi 1.02,2013-09-28 22:13:00,
2013-09-28 18:23:00,66.0,46.2,-100.00,North,-999,0.0,0.0,49,0.00,,,-99.99,FreeWX-Wi 1.02,2013-09-28 22:23:00,
2013-09-28 18:33:00,66.0,46.2,-100.00,North,-999,0.0,0.0,49,0.00,,,-99.99,FreeWX-Wi 1.02,2013-09-28 22:33:00,
2013-09-28 18:43:00,66.0,46.2,-100.00,North,-999,0.0,4.5,49,0.00,,,-99.99,FreeWX-Wi 1.02,2013-09-28 22:43:00,
2013-09-28 18:53:00,65.8,46.2,-100.00,North,-999,0.0,0.0,49,0.00,,,-99.99,FreeWX-Wi 1.02,2013-09-28 22:53:00,
2013-09-28 19:03:00,65.7,46.6,-100.00,North,-999,0.0,0.0,50,0.00,,,-99.99,FreeWX-Wi 1.02,2013-09-28 23:03:00,
2013-09-28 19:13:00,65.5,46.4,-100.00,North,-999,0.0,0.0,50,0.00,,,-99.99,FreeWX-Wi 1.02,2013-09-28 23:13:00,
2013-09-28 19:23:00,65.3,46.8,-100.00,North,-999,0.0,0.0,51,0.00,,,-99.99,FreeWX-Wi 1.02,2013-09-28 23:23:00,
2013-09-28 19:33:00,65.1,46.6,-100.00,North,-999,0.0,0.0,51,0.00,,,-99.99,FreeWX-Wi 1.02,2013-09-28 23:33:00,
2013-09-28 19:43:00,64.9,46.4,-100.00,North,-999,0.0,0.0,51,0.00,,,-99.99,FreeWX-Wi 1.02,2013-09-28 23:43:00,
2013-09-28 19:53:00,64.8,46.8,-100.00,North,-999,0.0,0.0,52,0.00,,,-99.99,FreeWX-Wi 1.02,2013-09-28 23:53:00,
2013-09-28 20:03:00,64.4,46.4,-100.00,North,-999,0.0,0.0,52,0.00,,,-99.99,FreeWX-Wi 1.02,2013-09-29 00:03:00,
2013-09-28 20:13:00,64.2,46.8,-100.00,North,-999,0.0,0.0,53,0.00,,,-99.99,FreeWX-Wi 1.02,2013-09-29 00:13:00,
2013-09-28 20:23:00,64.0,46.6,-100.00,North,-999,0.0,0.0,53,0.00,,,-99.99,FreeWX-Wi 1.02,2013-09-29 00:23:00,
2013-09-28 20:33:00,63.9,46.4,-100.00,North,-999,0.0,0.0,53,0.00,,,-99.99,FreeWX-Wi 1.02,2013-09-29 00:33:00,
2013-09-28 20:43:00,63.5,46.6,-100.00,North,-999,0.0,0.0,54,0.00,,,-99.99,FreeWX-Wi 1.02,2013-09-29 00:43:00,
2013-09-28 20:53:00,63.3,46.4,-100.00,North,-999,0.0,0.0,54,0.00,,,-99.99,FreeWX-Wi 1.02,2013-09-29 00:53:00,
2013-09-28 21:03:00,63.0,46.0,-100.00,North,-999,0.0,0.0,54,0.00,,,-99.99,FreeWX-Wi 1.02,2013-09-29 01:03:00,
2013-09-28 21:13:00,62.8,45.9,-100.00,North,-999,0.0,0.0,54,0.00,,,-99.99,FreeWX-Wi 1.02,2013-09-29 01:13:00,
2013-09-28 21:23:00,62.4,46.0,-100.00,North,-999,0.0,0.0,55,0.00,,,-99.99,FreeWX-Wi 1.02,2013-09-29 01:23:00,
2013-09-28 21:33:00,62.2,45.9,-100.00,North,-999,0.0,0.0,55,0.00,,,-99.99,FreeWX-Wi 1.02,2013-09-29 01:33:00,
2013-09-28 21:43:00,62.1,46.2,-100.00,North,-999,0.0,0.0,56,0.00,,,-99.99,FreeWX-Wi 1.02,2013-09-29 01:43:00,
2013-09-28 21:53:00,61.9,46.0,-100.00,North,-999,0.0,0.0,56,0.00,,,-99.99,FreeWX-Wi 1.02,2013-09-29 01:53:00,
2013-09-28 22:03:00,61.7,45.9,-100.00,North,-999,0.0,0.0,56,0.00,,,-99.99,FreeWX-Wi 1.02,2013-09-29 02:03:00,
2013-09-28 22:13:00,61.5,45.7,-100.00,North,-999,0.0,0.0,56,0.00,,,-99.99,FreeWX-Wi 1.02,2013-09-29 02:13:00,
2013-09-28 22:23:00,61.3,46.0,-100.00,North,-999,0.0,0.0,57,0.00,,,-99.99,FreeWX-Wi 1.02,2013-09-29 02:23:00,
2013-09-28 22:33:00,61.2,45.9,-100.00,North,-999,0.0,0.0,57,0.00,,,-99.99,FreeWX-Wi 1.02,2013-09-29 02:33:00,
2013-09-28 22:43:00,61.0,45.7,-100.00,North,-999,0.0,0.0,57,0.00,,,-99.99,FreeWX-Wi 1.02,2013-09-29 02:43:00,
2013-09-28 22:53:00,60.8,45.5,-100.00,North,-999,0.0,0.0,57,0.00,,,-99.99,FreeWX-Wi 1.02,2013-09-29 02:53:00,
2013-09-28 23:03:00,60.6,45.7,-100.00,North,-999,0.0,0.0,58,0.00,,,-99.99,FreeWX-Wi 1.02,2013-09-29 03:03:00,
2013-09-28 23:13:00,60.4,45.5,-100.00,North,-999,0.0,0.0,58,0.00,,,-99.99,FreeWX-Wi 1.02,2013-09-29 03:13:00,
2013-09-28 23:23:00,60.3,45.9,-100.00,North,-999,0.0,0.0,59,0.00,,,-99.99,FreeWX-Wi 1.02,2013-09-29 03:23:00,
2013-09-28 23:33:00,60.1,45.7,-100.00,North,-999,0.0,0.0,59,0.00,,,-99.99,FreeWX-Wi 1.02,2013-09-29 03:33:00,
2013-09-28 23:43:00,59.9,45.5,-100.00,North,-999,0.0,0.0,59,0.00,,,-99.99,FreeWX-Wi 1.02,2013-09-29 03:43:00,
2013-09-28 23:53:00,59.7,45.9,-100.00,North,-999,0.0,0.0,60,0.00,,,-99.99,FreeWX-Wi 1.02,2013-09-29 03:53:00,